Time;durP1;ratioP1;P1;durP2;ratioP2;P2;SDS_P1;SDS_P2;PMS_P1;PMS_P2;Temp;Humidity;BMP_temperature;BMP_pressure;BME280_temperature;BME280_humidity;BME280_pressure;Samples;Min_cycle;Max_cycle;Signal;HPM_P1;HPM_P2
2023/03/31 00:00:27;;;;;;;;;;;;;;;9.41;82.33;97847.84;5087534;28;19928;-80
2023/03/31 00:02:53;;;;;;;;;;;;;;;9.40;81.96;97840.09;5070206;28;19932;-81
2023/03/31 00:05:20;;;;;;;;;;;;;;;9.37;82.39;97841.41;5084631;28;19928;-80
2023/03/31 00:07:47;;;;;;;;;;;;;;;9.29;82.25;97836.63;5057873;28;19921;-80
2023/03/31 00:10:13;;;;;;;;;;;;;;;9.18;82.84;97836.88;5070500;28;19920;-80
2023/03/31 00:12:38;;;;;;;;;;;;;;;9.32;82.27;97841.44;5076576;28;22052;-79
2023/03/31 00:15:05;;;;;;;;;;;;;;;9.21;82.55;97839.00;5085364;28;19951;-80
2023/03/31 00:17:32;;;;;;;;;;;;;;;9.29;83.18;97833.16;5072131;28;19927;-80
2023/03/31 00:19:59;;;;;;;;;;;;;;;9.23;83.23;97834.22;5069492;28;20065;-80
2023/03/31 00:22:26;;;;;;;;;;;;;;;9.29;82.25;97835.81;5064479;28;19920;-79
2023/03/31 00:24:51;;;;;;;;;;;;;;;9.21;83.21;97823.03;5093106;28;20280;-79
2023/03/31 00:27:16;;;;;;;;;;;;;;;9.23;82.90;97818.25;5053948;28;19927;-80
2023/03/31 00:29:42;;;;;;;;;;;;;;;9.26;83.21;97810.50;5090541;28;20437;-80
2023/03/31 00:32:07;;;;;;;;;;;;;;;9.23;83.05;97807.59;5092968;28;19931;-80
2023/03/31 00:34:33;;;;;;;;;;;;;;;9.20;83.70;97800.13;5089314;28;20372;-80
2023/03/31 00:37:01;;;;;;;;;;;;;;;9.21;83.67;97804.41;5090091;28;19917;-80
2023/03/31 00:39:30;;;;;;;;;;;;;;;9.24;83.39;97806.53;5090576;28;19951;-80
2023/03/31 00:41:56;;;;;;;;;;;;;;;9.30;82.95;97789.50;5089700;28;20002;-80
2023/03/31 00:44:23;;;;;;;;;;;;;;;9.39;82.17;97790.56;5088264;28;20019;-80
2023/03/31 00:46:53;;;;;;;;;;;;;;;9.29;83.06;97798.53;5081144;28;20103;-80
2023/03/31 00:49:26;;;;;;;;;;;;;;;9.23;83.51;97781.78;5086512;28;19916;-80
2023/03/31 00:51:53;;;;;;;;;;;;;;;9.22;82.98;97777.50;5087098;28;19916;-80
2023/03/31 00:54:20;;;;;;;;;;;;;;;9.27;82.96;97777.53;5085907;28;19927;-80
2023/03/31 00:56:48;;;;;;;;;;;;;;;9.28;82.94;97778.31;5084205;28;19928;-80
2023/03/31 00:59:13;;;;;;;;;;;;;;;9.28;82.36;97771.13;5069515;28;19922;-80
2023/03/31 01:01:41;;;;;;;;;;;;;;;9.22;82.99;97769.53;5062756;28;20011;-79
2023/03/31 01:04:08;;;;;;;;;;;;;;;9.36;82.96;97759.94;5084900;28;20292;-80
2023/03/31 01:06:36;;;;;;;;;;;;;;;9.35;82.29;97771.66;5086555;28;20643;-80
2023/03/31 01:09:05;;;;;;;;;;;;;;;9.27;83.09;97752.75;5082782;28;20005;-80
2023/03/31 01:11:30;;;;;;;;;;;;;;;9.23;83.36;97757.00;5056481;28;19928;-80
2023/03/31 01:13:56;;;;;;;;;;;;;;;9.24;83.22;97748.75;5089276;28;19920;-80
2023/03/31 01:16:22;;;;;;;;;;;;;;;9.19;83.13;97753.28;5082689;28;20362;-80
2023/03/31 01:18:48;;;;;;;;;;;;;;;9.15;83.33;97745.03;5073938;28;20053;-80
2023/03/31 01:21:37;;;;;;;;;;;;;;;9.09;83.78;97740.75;5070011;28;20372;-80
2023/03/31 01:24:02;;;;;;;;;;;;;;;8.98;84.46;97734.63;5051394;28;20291;-80
2023/03/31 01:26:30;;;;;;;;;;;;;;;9.04;84.02;97738.13;5082500;28;19930;-80
2023/03/31 01:28:56;;;;;;;;;;;;;;;9.03;84.14;97726.66;5087654;28;19920;-80
2023/03/31 01:31:27;;;;;;;;;;;;;;;9.01;83.89;97720.81;5082947;28;19917;-79
2023/03/31 01:34:08;;;;;;;;;;;;;;;8.98;83.97;97721.34;5077116;28;19916;-81
2023/03/31 01:36:41;;;;;;;;;;;;;;;8.94;84.41;97709.63;5095041;28;20002;-80
2023/03/31 01:39:18;;;;;;;;;;;;;;;9.09;83.96;97708.06;5088996;28;19916;-80
2023/03/31 01:41:44;;;;;;;;;;;;;;;8.96;84.37;97709.34;5089161;28;19916;-80
2023/03/31 01:44:09;;;;;;;;;;;;;;;9.00;83.95;97705.91;5086004;28;20171;-80
2023/03/31 01:46:36;;;;;;;;;;;;;;;9.03;84.31;97697.41;5089884;28;19919;-79
2023/03/31 01:49:14;;;;;;;;;;;;;;;9.05;84.27;97692.59;5082347;28;19964;-80
2023/03/31 01:51:55;;;;;;;;;;;;;;;9.17;83.76;97700.31;5072161;28;20349;-80
2023/03/31 01:54:26;;;;;;;;;;;;;;;9.10;84.41;97691.00;5071573;28;20407;-79
2023/03/31 01:56:55;;;;;;;;;;;;;;;9.03;83.78;97678.75;5088919;28;20084;-80
2023/03/31 01:59:28;;;;;;;;;;;;;;;8.95;84.54;97681.16;5084434;28;19920;-80
2023/03/31 02:02:00;;;;;;;;;;;;;;;8.99;84.25;97677.69;5088052;28;20019;-80
2023/03/31 02:04:29;;;;;;;;;;;;;;;9.09;83.79;97676.88;5087244;28;19921;-81
2023/03/31 02:06:58;;;;;;;;;;;;;;;9.06;84.31;97661.47;5087645;28;20014;-80
2023/03/31 02:09:28;;;;;;;;;;;;;;;8.84;84.78;97656.41;5076085;28;19917;-80
2023/03/31 02:11:55;;;;;;;;;;;;;;;8.92;84.65;97661.19;5088965;28;19977;-80
2023/03/31 02:14:22;;;;;;;;;;;;;;;8.86;84.41;97656.16;5063076;28;19924;-80
2023/03/31 02:16:50;;;;;;;;;;;;;;;8.96;84.59;97661.44;5086420;28;20003;-80
2023/03/31 02:19:18;;;;;;;;;;;;;;;8.93;85.19;97651.34;5085781;28;19923;-79
2023/03/31 02:21:45;;;;;;;;;;;;;;;8.99;84.28;97652.94;5073333;28;19942;-80
2023/03/31 02:24:13;;;;;;;;;;;;;;;8.85;84.88;97638.56;5081008;28;19970;-80
2023/03/31 02:26:47;;;;;;;;;;;;;;;8.86;85.05;97648.97;5088155;28;19916;-80
2023/03/31 02:29:12;;;;;;;;;;;;;;;8.93;84.81;97636.16;5083172;28;19930;-80
2023/03/31 02:31:56;;;;;;;;;;;;;;;8.95;84.47;97636.69;5067645;28;20011;-80
2023/03/31 02:34:22;;;;;;;;;;;;;;;9.01;84.45;97638.31;5070969;28;19924;-80
2023/03/31 02:36:48;;;;;;;;;;;;;;;8.92;84.31;97633.78;5089253;28;19920;-80
2023/03/31 02:39:16;;;;;;;;;;;;;;;9.00;84.38;97634.03;5056021;28;20299;-80
2023/03/31 02:41:42;;;;;;;;;;;;;;;9.02;83.49;97633.78;5081583;28;19916;-79
2023/03/31 02:44:08;;;;;;;;;;;;;;;8.92;84.30;97626.59;5087764;28;19932;-80
2023/03/31 02:46:33;;;;;;;;;;;;;;;8.87;84.77;97623.94;5078896;28;19924;-80
2023/03/31 02:49:00;;;;;;;;;;;;;;;8.96;84.43;97618.88;5088441;28;19967;-79
2023/03/31 02:51:25;;;;;;;;;;;;;;;8.85;84.38;97620.75;5080354;28;20411;-80
2023/03/31 02:54:05;;;;;;;;;;;;;;;8.92;84.18;97623.16;5086034;28;19916;-80
2023/03/31 02:56:31;;;;;;;;;;;;;;;8.84;83.98;97621.84;5086421;28;20288;-80
2023/03/31 02:59:11;;;;;;;;;;;;;;;8.83;84.76;97614.91;5085423;28;19921;-80
2023/03/31 03:01:55;;;;;;;;;;;;;;;8.87;84.28;97609.84;5088617;28;19935;-80
2023/03/31 03:04:40;;;;;;;;;;;;;;;8.91;84.28;97587.75;5087523;28;19931;-80
2023/03/31 03:07:21;;;;;;;;;;;;;;;8.81;84.62;97584.31;5086178;28;20379;-80
2023/03/31 03:09:49;;;;;;;;;;;;;;;8.74;84.93;97579.25;5084005;28;19978;-80
2023/03/31 03:12:34;;;;;;;;;;;;;;;8.78;84.93;97582.19;5086186;28;19947;-80
2023/03/31 03:15:03;;;;;;;;;;;;;;;8.79;85.00;97571.28;5034341;28;19920;-80
2023/03/31 03:17:35;;;;;;;;;;;;;;;8.82;85.19;97564.63;5077578;28;19967;-80
2023/03/31 03:20:01;;;;;;;;;;;;;;;8.74;84.74;97568.63;5069915;28;19967;-80
2023/03/31 03:22:26;;;;;;;;;;;;;;;8.75;84.83;97558.78;5078297;28;19920;-80
2023/03/31 03:24:52;;;;;;;;;;;;;;;8.77;84.98;97553.97;5069718;28;19931;-80
2023/03/31 03:27:18;;;;;;;;;;;;;;;8.79;85.30;97555.31;5065098;28;19920;-80
2023/03/31 03:29:43;;;;;;;;;;;;;;;8.84;85.34;97552.66;5088501;28;19928;-80
2023/03/31 03:32:09;;;;;;;;;;;;;;;8.81;85.05;97555.84;5080248;28;20298;-80
2023/03/31 03:34:34;;;;;;;;;;;;;;;8.75;85.47;97550.81;5063449;28;20356;-79
2023/03/31 03:36:59;;;;;;;;;;;;;;;8.75;86.07;97540.16;5084111;28;20462;-80
2023/03/31 03:39:25;;;;;;;;;;;;;;;8.70;86.81;97540.97;5084046;28;20364;-79
2023/03/31 03:41:50;;;;;;;;;;;;;;;8.80;86.95;97537.50;5070212;28;19967;-79
2023/03/31 03:44:15;;;;;;;;;;;;;;;8.66;87.80;97528.47;5067556;28;20394;-79
2023/03/31 03:46:40;;;;;;;;;;;;;;;8.73;87.16;97524.47;5065039;28;19920;-80
2023/03/31 03:49:06;;;;;;;;;;;;;;;8.70;87.46;97517.03;5072939;28;19956;-80
2023/03/31 03:51:31;;;;;;;;;;;;;;;8.65;88.70;97516.25;5064440;28;19932;-80
2023/03/31 03:53:56;;;;;;;;;;;;;;;8.71;88.62;97501.88;5068068;28;19928;-80
2023/03/31 03:56:21;;;;;;;;;;;;;;;8.75;88.51;97500.25;5071947;28;19967;-80
2023/03/31 03:58:46;;;;;;;;;;;;;;;8.81;88.12;97488.53;5057185;28;20212;-80
2023/03/31 04:01:13;;;;;;;;;;;;;;;8.75;87.60;97485.09;5080399;28;20279;-80
2023/03/31 04:03:38;;;;;;;;;;;;;;;8.74;88.14;97480.84;5087718;28;19979;-80
2023/03/31 04:06:03;;;;;;;;;;;;;;;8.79;88.31;97472.84;5085993;28;19989;-80
2023/03/31 04:08:29;;;;;;;;;;;;;;;8.72;88.10;97472.31;5086073;28;19928;-80
2023/03/31 04:10:54;;;;;;;;;;;;;;;8.73;88.08;97465.16;5068657;28;20474;-80
2023/03/31 04:13:20;;;;;;;;;;;;;;;8.72;87.60;97456.38;5093404;28;19985;-79
2023/03/31 04:15:45;;;;;;;;;;;;;;;8.70;88.51;97455.03;5072121;28;19946;-80
2023/03/31 04:18:21;;;;;;;;;;;;;;;8.64;88.38;97461.44;5084709;28;19952;-80
2023/03/31 04:20:53;;;;;;;;;;;;;;;8.59;88.80;97446.28;5074773;28;20460;-80
2023/03/31 04:23:19;;;;;;;;;;;;;;;8.59;88.99;97433.00;5054999;28;19932;-80
2023/03/31 04:25:45;;;;;;;;;;;;;;;8.64;88.74;97426.88;5086660;28;19924;-79
2023/03/31 04:28:13;;;;;;;;;;;;;;;8.65;89.41;97439.88;5083176;28;19923;-79
2023/03/31 04:30:39;;;;;;;;;;;;;;;8.46;90.08;97433.56;5087430;28;19916;-79
2023/03/31 04:33:05;;;;;;;;;;;;;;;8.59;89.76;97416.25;5077986;28;20355;-79
2023/03/31 04:35:48;;;;;;;;;;;;;;;8.62;89.26;97405.06;5066008;28;20015;-80
2023/03/31 04:38:17;;;;;;;;;;;;;;;8.70;88.36;97399.19;5070987;28;20433;-80
2023/03/31 04:40:42;;;;;;;;;;;;;;;8.65;89.43;97388.59;5086244;28;20951;-79
2023/03/31 04:43:08;;;;;;;;;;;;;;;8.55;90.07;97388.59;5081569;28;19955;-80
2023/03/31 04:45:33;;;;;;;;;;;;;;;8.58;90.01;97393.38;5055346;28;19920;-80
2023/03/31 04:47:58;;;;;;;;;;;;;;;8.75;89.27;97377.91;5054790;28;20015;-79
2023/03/31 04:50:23;;;;;;;;;;;;;;;8.68;89.11;97370.22;5089732;28;19924;-79
2023/03/31 04:52:48;;;;;;;;;;;;;;;8.74;89.39;97370.97;5084983;28;19920;-79
2023/03/31 04:55:14;;;;;;;;;;;;;;;8.63;89.54;97374.72;5088638;28;19965;-80
2023/03/31 04:57:40;;;;;;;;;;;;;;;8.65;89.83;97369.97;5069900;28;19937;-80
2023/03/31 05:00:06;;;;;;;;;;;;;;;8.53;90.04;97380.91;5066142;28;19920;-80
2023/03/31 05:02:32;;;;;;;;;;;;;;;8.56;89.70;97377.69;5087967;28;20279;-80
2023/03/31 05:04:57;;;;;;;;;;;;;;;8.61;90.21;97376.88;5075889;28;19924;-80
2023/03/31 05:07:22;;;;;;;;;;;;;;;8.59;90.39;97384.31;5072784;28;19916;-79
2023/03/31 05:09:47;;;;;;;;;;;;;;;8.55;90.56;97384.09;5056626;28;19924;-80
2023/03/31 05:12:13;;;;;;;;;;;;;;;8.68;90.05;97388.81;5081063;28;20011;-80
2023/03/31 05:14:38;;;;;;;;;;;;;;;8.69;90.31;97385.09;5067796;28;19959;-80
2023/03/31 05:17:03;;;;;;;;;;;;;;;8.63;89.67;97375.53;5082456;28;20388;-80
2023/03/31 05:19:28;;;;;;;;;;;;;;;8.59;90.69;97387.78;5055546;28;19920;-80
2023/03/31 05:21:54;;;;;;;;;;;;;;;8.64;90.15;97385.13;5079581;28;19921;-80
2023/03/31 05:24:19;;;;;;;;;;;;;;;8.56;90.48;97380.34;5084234;28;20431;-80
2023/03/31 05:26:51;;;;;;;;;;;;;;;8.46;90.83;97353.00;5072780;28;19920;-80
2023/03/31 05:29:20;;;;;;;;;;;;;;;8.73;90.10;97343.59;5065026;28;19920;-80
2023/03/31 05:31:45;;;;;;;;;;;;;;;8.74;90.21;97339.84;5087089;28;19922;-80
2023/03/31 05:34:11;;;;;;;;;;;;;;;8.84;90.32;97331.84;5081101;28;21865;-80
2023/03/31 05:36:36;;;;;;;;;;;;;;;8.63;90.57;97321.53;5078527;28;19924;-80
2023/03/31 05:39:02;;;;;;;;;;;;;;;8.49;91.63;97305.41;5079908;28;19923;-80
2023/03/31 05:41:27;;;;;;;;;;;;;;;8.63;91.20;97306.38;5082311;28;19916;-80
2023/03/31 05:43:52;;;;;;;;;;;;;;;8.75;90.70;97303.41;5061783;28;19924;-80
2023/03/31 05:46:18;;;;;;;;;;;;;;;8.86;89.60;97308.41;5081666;28;19922;-80
2023/03/31 05:48:45;;;;;;;;;;;;;;;8.86;90.04;97312.94;5059426;28;20293;-80
2023/03/31 05:51:10;;;;;;;;;;;;;;;8.92;89.97;97315.28;5084512;28;19985;-80
2023/03/31 05:53:35;;;;;;;;;;;;;;;8.91;89.28;97319.00;5088482;28;19920;-80
2023/03/31 05:56:02;;;;;;;;;;;;;;;8.72;90.52;97311.94;5080965;28;19971;-80
2023/03/31 05:58:28;;;;;;;;;;;;;;;8.69;90.52;97310.59;5070192;28;19920;-80
2023/03/31 06:01:07;;;;;;;;;;;;;;;8.69;91.04;97305.28;5080557;28;20326;-80
2023/03/31 06:03:33;;;;;;;;;;;;;;;8.63;90.86;97318.88;5080001;28;19924;-80
2023/03/31 06:05:58;;;;;;;;;;;;;;;8.63;92.24;97314.38;5083872;28;19926;-80
2023/03/31 06:08:23;;;;;;;;;;;;;;;8.60;92.56;97314.94;5082988;28;20447;-80
2023/03/31 06:10:49;;;;;;;;;;;;;;;8.67;92.31;97304.78;5068129;28;19961;-80
2023/03/31 06:13:14;;;;;;;;;;;;;;;8.65;92.17;97304.25;5083041;28;19945;-80
2023/03/31 06:15:39;;;;;;;;;;;;;;;8.72;91.96;97299.44;5064838;28;20190;-80
2023/03/31 06:18:09;;;;;;;;;;;;;;;8.67;91.81;97294.13;5083092;28;19981;-80
2023/03/31 06:20:34;;;;;;;;;;;;;;;8.71;92.04;97289.88;5064711;28;19991;-80
2023/03/31 06:22:59;;;;;;;;;;;;;;;8.81;91.73;97281.84;5085819;28;19995;-79
2023/03/31 06:25:25;;;;;;;;;;;;;;;8.82;91.19;97275.41;5064900;28;20344;-80
2023/03/31 06:27:50;;;;;;;;;;;;;;;8.81;90.34;97265.88;5078330;28;19928;-80
2023/03/31 06:30:15;;;;;;;;;;;;;;;8.94;91.14;97267.13;5084357;28;20015;-80
2023/03/31 06:32:40;;;;;;;;;;;;;;;8.84;91.10;97264.53;5079538;28;19966;-79
2023/03/31 06:35:06;;;;;;;;;;;;;;;9.04;90.21;97262.50;5081084;28;19934;-80
2023/03/31 06:37:31;;;;;;;;;;;;;;;9.01;90.22;97255.09;5085218;28;19916;-79
2023/03/31 06:39:56;;;;;;;;;;;;;;;8.90;91.31;97258.91;5081695;28;19920;-79
2023/03/31 06:42:22;;;;;;;;;;;;;;;8.98;90.68;97263.63;5058155;28;20076;-79
2023/03/31 06:44:47;;;;;;;;;;;;;;;9.03;89.99;97257.47;5079791;28;20023;-79
2023/03/31 06:47:12;;;;;;;;;;;;;;;8.98;90.46;97260.97;5063097;28;19928;-79
2023/03/31 06:49:37;;;;;;;;;;;;;;;9.05;89.24;97253.47;5079261;28;20380;-79
2023/03/31 06:52:02;;;;;;;;;;;;;;;9.04;89.67;97248.44;5081252;28;20383;-79
2023/03/31 06:54:28;;;;;;;;;;;;;;;9.03;89.74;97242.31;5075052;28;20311;-80
2023/03/31 06:56:53;;;;;;;;;;;;;;;9.00;89.69;97242.06;5080857;28;20110;-80
2023/03/31 06:59:18;;;;;;;;;;;;;;;8.93;89.91;97239.69;5063721;28;19943;-78
2023/03/31 07:01:44;;;;;;;;;;;;;;;9.06;89.45;97241.75;5065643;28;19927;-79
2023/03/31 07:04:10;;;;;;;;;;;;;;;9.15;89.51;97246.50;5077501;28;20406;-79
2023/03/31 07:06:35;;;;;;;;;;;;;;;9.16;89.02;97235.56;5052583;28;19927;-80
2023/03/31 07:09:00;;;;;;;;;;;;;;;9.09;89.61;97239.63;5082618;28;20264;-81
2023/03/31 07:11:26;;;;;;;;;;;;;;;9.14;89.12;97240.38;5077692;28;19920;-80
2023/03/31 07:13:51;;;;;;;;;;;;;;;9.15;89.99;97228.66;5061563;28;19928;-80
2023/03/31 07:16:16;;;;;;;;;;;;;;;9.16;89.53;97234.75;5081845;28;19959;-80
2023/03/31 07:18:41;;;;;;;;;;;;;;;9.15;89.59;97236.63;5078736;28;20001;-80
2023/03/31 07:21:07;;;;;;;;;;;;;;;9.02;90.92;97230.06;5062995;28;20367;-80
2023/03/31 07:23:33;;;;;;;;;;;;;;;8.95;92.16;97229.56;5080210;28;19924;-80
2023/03/31 07:26:01;;;;;;;;;;;;;;;9.04;90.66;97225.25;5050815;28;19927;-80
2023/03/31 07:28:27;;;;;;;;;;;;;;;8.90;91.83;97226.97;5066649;28;19970;-80
2023/03/31 07:30:52;;;;;;;;;;;;;;;9.20;90.82;97217.94;5064447;28;19923;-79
2023/03/31 07:33:17;;;;;;;;;;;;;;;9.07;90.35;97215.94;5083311;28;19916;-80
2023/03/31 07:35:43;;;;;;;;;;;;;;;9.22;89.99;97209.69;5063139;28;19931;-80
2023/03/31 07:38:09;;;;;;;;;;;;;;;9.14;90.57;97215.59;5082128;28;19927;-80
2023/03/31 07:40:35;;;;;;;;;;;;;;;9.11;91.07;97206.31;5083202;28;20010;-80
2023/03/31 07:43:00;;;;;;;;;;;;;;;9.04;91.45;97195.22;5083218;28;20044;-80
2023/03/31 07:45:26;;;;;;;;;;;;;;;9.21;90.54;97202.78;5081541;28;19924;-80
2023/03/31 07:47:51;;;;;;;;;;;;;;;9.10;91.26;97188.75;5085787;28;19924;-80
2023/03/31 07:50:17;;;;;;;;;;;;;;;9.09;91.71;97186.41;5073632;28;19965;-80
2023/03/31 07:52:43;;;;;;;;;;;;;;;9.06;91.41;97177.09;5073881;28;21281;-80
2023/03/31 07:55:08;;;;;;;;;;;;;;;9.05;91.29;97178.97;5087499;28;20015;-80
2023/03/31 07:57:34;;;;;;;;;;;;;;;8.97;91.46;97168.13;5093223;28;19916;-80
2023/03/31 08:00:01;;;;;;;;;;;;;;;8.91;91.25;97163.91;5070135;28;19920;-81
2023/03/31 08:02:26;;;;;;;;;;;;;;;8.85;91.83;97160.50;5083757;28;20053;-80
2023/03/31 08:04:51;;;;;;;;;;;;;;;8.82;91.15;97158.38;5090095;28;20406;-80
2023/03/31 08:07:16;;;;;;;;;;;;;;;8.81;91.78;97153.34;5076231;28;19927;-80
2023/03/31 08:09:43;;;;;;;;;;;;;;;8.78;92.15;97162.66;5092085;28;19920;-80
2023/03/31 08:12:08;;;;;;;;;;;;;;;8.78;91.49;97151.25;5082976;28;20023;-80
2023/03/31 08:14:33;;;;;;;;;;;;;;;8.68;92.43;97148.66;5089186;28;20062;-82
2023/03/31 08:16:59;;;;;;;;;;;;;;;8.86;90.99;97146.13;5083459;28;20070;-82
2023/03/31 08:19:25;;;;;;;;;;;;;;;8.89;90.58;97145.56;5085113;28;19967;-81
2023/03/31 08:21:51;;;;;;;;;;;;;;;8.91;90.69;97142.63;5069272;28;19931;-82
2023/03/31 08:24:16;;;;;;;;;;;;;;;8.86;90.97;97148.00;5062125;28;19935;-82
2023/03/31 08:26:41;;;;;;;;;;;;;;;8.79;91.63;97156.28;5070708;28;20387;-82
2023/03/31 08:29:06;;;;;;;;;;;;;;;8.72;91.88;97147.03;5072255;28;19920;-82
2023/03/31 08:31:33;;;;;;;;;;;;;;;8.71;91.92;97151.56;5075254;28;20015;-82
2023/03/31 08:33:58;;;;;;;;;;;;;;;8.63;92.01;97141.50;5088250;28;19927;-81
2023/03/31 08:36:24;;;;;;;;;;;;;;;8.72;91.49;97136.38;5090011;28;19919;-83
2023/03/31 08:38:50;;;;;;;;;;;;;;;8.72;91.29;97131.06;5065594;28;20251;-82
2023/03/31 08:41:38;;;;;;;;;;;;;;;8.66;91.59;97127.66;5087227;28;19926;-82
2023/03/31 08:44:07;;;;;;;;;;;;;;;8.70;91.24;97120.72;5077988;28;20187;-82
2023/03/31 08:46:34;;;;;;;;;;;;;;;8.70;91.73;97109.28;5089167;28;19916;-82
2023/03/31 08:49:00;;;;;;;;;;;;;;;8.69;92.02;97107.72;5075703;28;20299;-82
2023/03/31 08:51:28;;;;;;;;;;;;;;;8.71;91.12;97095.72;5070839;28;19920;-82
2023/03/31 08:54:11;;;;;;;;;;;;;;;8.70;91.42;97088.78;5065880;28;19916;-82
2023/03/31 08:56:38;;;;;;;;;;;;;;;8.79;91.56;97081.81;5059569;28;19920;-82
2023/03/31 08:59:05;;;;;;;;;;;;;;;8.79;90.20;97081.81;5069564;28;19924;-82
2023/03/31 09:01:31;;;;;;;;;;;;;;;8.83;90.69;97072.19;5064934;28;20334;-82
2023/03/31 09:04:15;;;;;;;;;;;;;;;8.86;91.00;97079.63;5088908;28;19945;-83
2023/03/31 09:06:44;;;;;;;;;;;;;;;8.89;90.43;97076.38;5080235;28;19969;-82
2023/03/31 09:09:15;;;;;;;;;;;;;;;8.81;90.28;97068.22;5090326;28;19923;-82
2023/03/31 09:11:47;;;;;;;;;;;;;;;8.79;90.37;97063.19;5091769;28;19931;-82
2023/03/31 09:14:33;;;;;;;;;;;;;;;8.85;90.45;97063.91;5089647;28;19962;-83
2023/03/31 09:17:25;;;;;;;;;;;;;;;8.86;90.93;97070.84;5076539;28;19923;-83
2023/03/31 09:19:57;;;;;;;;;;;;;;;8.84;90.56;97075.66;5089918;28;20371;-83
2023/03/31 09:22:31;;;;;;;;;;;;;;;8.78;90.79;97064.25;5078892;28;19920;-83
2023/03/31 09:25:01;;;;;;;;;;;;;;;8.72;91.35;97068.03;5095180;28;19991;-83
2023/03/31 09:27:27;;;;;;;;;;;;;;;8.70;91.54;97064.88;5084298;28;19916;-81
2023/03/31 09:29:52;;;;;;;;;;;;;;;8.62;91.91;97062.81;5092087;28;19946;-82
2023/03/31 09:32:19;;;;;;;;;;;;;;;8.68;91.49;97069.66;5087872;28;20384;-83
2023/03/31 09:34:45;;;;;;;;;;;;;;;8.72;90.76;97069.91;5069728;28;19939;-82
2023/03/31 09:37:10;;;;;;;;;;;;;;;8.75;90.86;97064.03;5088405;28;19990;-82
2023/03/31 09:39:37;;;;;;;;;;;;;;;8.72;91.79;97069.91;5090009;28;19920;-82
2023/03/31 09:42:02;;;;;;;;;;;;;;;8.88;90.72;97069.50;5089814;28;20222;-83
2023/03/31 09:44:38;;;;;;;;;;;;;;;8.93;90.37;97063.31;5073699;28;20395;-82
2023/03/31 09:47:06;;;;;;;;;;;;;;;8.85;91.25;97062.06;5089890;28;20357;-82
2023/03/31 09:49:34;;;;;;;;;;;;;;;8.89;90.74;97047.13;5097978;28;20012;-83
2023/03/31 09:52:02;;;;;;;;;;;;;;;8.87;90.38;97049.25;5097941;28;20240;-83
2023/03/31 09:54:30;;;;;;;;;;;;;;;8.90;90.60;97053.25;5073011;28;19924;-83
2023/03/31 09:56:56;;;;;;;;;;;;;;;8.89;89.91;97052.44;5087617;28;19919;-83
2023/03/31 09:59:22;;;;;;;;;;;;;;;8.86;91.09;97038.91;5088671;28;19960;-83
2023/03/31 10:01:52;;;;;;;;;;;;;;;8.83;91.18;97042.13;5092896;28;20414;-83
2023/03/31 10:04:26;;;;;;;;;;;;;;;8.98;89.69;97029.47;5067886;28;20308;-83
2023/03/31 10:06:52;;;;;;;;;;;;;;;9.03;89.90;97025.97;5081262;28;20368;-83
2023/03/31 10:09:20;;;;;;;;;;;;;;;9.02;89.80;97019.84;5077664;28;20440;-82
2023/03/31 10:12:01;;;;;;;;;;;;;;;9.03;89.87;97020.66;5077632;28;19975;-82
2023/03/31 10:14:46;;;;;;;;;;;;;;;9.10;89.32;97017.63;5088787;28;19917;-82
2023/03/31 10:17:16;;;;;;;;;;;;;;;9.02;89.86;97016.41;5070081;28;20422;-83
2023/03/31 10:19:49;;;;;;;;;;;;;;;9.25;89.25;97020.94;5089079;28;19922;-83
2023/03/31 10:22:25;;;;;;;;;;;;;;;9.22;89.47;97010.84;5087726;28;19924;-83
2023/03/31 10:24:50;;;;;;;;;;;;;;;9.31;89.30;97008.34;5091693;28;19920;-83
2023/03/31 10:27:24;;;;;;;;;;;;;;;9.19;90.82;97005.28;5078360;28;20345;-83
2023/03/31 10:29:59;;;;;;;;;;;;;;;9.38;88.23;96998.13;5081845;28;19956;-83
2023/03/31 10:32:27;;;;;;;;;;;;;;;9.31;89.80;96995.81;5083151;28;19977;-82
2023/03/31 10:35:18;;;;;;;;;;;;;;;9.38;89.89;96995.47;5088937;28;19959;-81
2023/03/31 10:37:43;;;;;;;;;;;;;;;9.32;90.97;96985.97;5088263;28;20016;-82
2023/03/31 10:40:19;;;;;;;;;;;;;;;9.51;89.34;96986.78;5076876;28;19947;-82
2023/03/31 10:42:46;;;;;;;;;;;;;;;9.60;89.38;96983.19;5081555;28;19920;-82
2023/03/31 10:45:13;;;;;;;;;;;;;;;9.73;88.23;96984.34;5068196;28;19925;-82
2023/03/31 10:47:39;;;;;;;;;;;;;;;9.85;87.73;96979.38;5082852;28;19920;-81
2023/03/31 10:50:11;;;;;;;;;;;;;;;9.73;90.93;96976.34;5087035;28;19920;-82
2023/03/31 10:52:42;;;;;;;;;;;;;;;9.91;90.53;96975.56;5073917;28;19920;-82
2023/03/31 10:55:11;;;;;;;;;;;;;;;9.94;88.94;96969.63;5065631;28;19939;-81
2023/03/31 10:57:55;;;;;;;;;;;;;;;10.21;89.16;96959.13;5071499;28;19951;-81
2023/03/31 11:00:20;;;;;;;;;;;;;;;10.37;89.70;96957.78;5065114;28;19916;-82
2023/03/31 11:03:02;;;;;;;;;;;;;;;10.41;89.66;96948.13;5071218;28;19927;-81
2023/03/31 11:05:30;;;;;;;;;;;;;;;10.54;90.84;96941.22;5080318;28;20370;-82
2023/03/31 11:08:12;;;;;;;;;;;;;;;10.70;89.66;96934.53;5081671;28;19924;-82
2023/03/31 11:10:50;;;;;;;;;;;;;;;10.73;89.34;96928.56;5084638;28;20304;-82
2023/03/31 11:13:28;;;;;;;;;;;;;;;10.83;88.97;96920.41;5083625;28;19917;-82
2023/03/31 11:15:56;;;;;;;;;;;;;;;10.80;88.63;96914.84;5083746;28;19920;-83
2023/03/31 11:18:40;;;;;;;;;;;;;;;10.88;87.95;96922.94;5080109;28;19924;-83
2023/03/31 11:21:41;;;;;;;;;;;;;;;10.82;87.73;96916.13;5077523;28;19980;-84
2023/03/31 11:24:12;;;;;;;;;;;;;;;10.85;87.26;96914.75;4983430;28;20265;-84
2023/03/31 11:26:37;;;;;;;;;;;;;;;10.91;87.69;96914.34;5052084;28;20853;-84
2023/03/31 11:29:11;;;;;;;;;;;;;;;11.10;87.69;96903.53;5081385;28;20014;-84
2023/03/31 11:31:43;;;;;;;;;;;;;;;11.29;87.64;96899.66;5085197;28;19920;-84
2023/03/31 11:34:11;;;;;;;;;;;;;;;11.39;86.77;96906.66;5064244;28;19916;-84
2023/03/31 11:36:40;;;;;;;;;;;;;;;11.66;86.62;96900.47;5064615;28;19975;-83
2023/03/31 11:39:11;;;;;;;;;;;;;;;11.71;85.28;96893.13;5083531;28;20016;-84
2023/03/31 11:41:40;;;;;;;;;;;;;;;11.68;85.17;96896.44;5066564;28;19924;-83
2023/03/31 11:44:10;;;;;;;;;;;;;;;11.62;85.17;96884.22;5070845;28;20400;-84
2023/03/31 11:46:42;;;;;;;;;;;;;;;11.78;84.19;96880.13;5087109;28;19924;-83
2023/03/31 11:49:38;;;;;;;;;;;;;;;11.80;84.63;96875.28;5069637;28;19920;-83
2023/03/31 11:52:16;;;;;;;;;;;;;;;12.11;84.76;96863.81;5063552;28;19924;-83
2023/03/31 11:54:41;;;;;;;;;;;;;;;12.39;84.20;96867.91;5084776;28;19917;-83
2023/03/31 11:57:14;;;;;;;;;;;;;;;12.50;83.38;96871.88;5082508;28;20069;-84
2023/03/31 11:59:42;;;;;;;;;;;;;;;12.52;82.52;96875.03;5059335;28;20346;-83
2023/03/31 12:02:26;;;;;;;;;;;;;;;12.38;81.67;96877.03;5062842;28;19921;-83
2023/03/31 12:04:54;;;;;;;;;;;;;;;12.39;81.80;96858.00;5090206;28;19924;-84
2023/03/31 12:07:28;;;;;;;;;;;;;;;12.44;81.80;96865.09;5080724;28;19927;-83
2023/03/31 12:10:04;;;;;;;;;;;;;;;12.35;80.47;96859.72;5082791;28;19920;-83
2023/03/31 12:12:32;;;;;;;;;;;;;;;12.26;80.83;96863.44;5081142;28;20347;-83
2023/03/31 12:15:15;;;;;;;;;;;;;;;12.19;80.15;96857.75;5084987;28;19963;-82
2023/03/31 12:17:44;;;;;;;;;;;;;;;12.24;80.52;96854.94;5057808;28;20057;-83
2023/03/31 12:20:28;;;;;;;;;;;;;;;12.22;80.04;96852.56;5078557;28;19916;-83
2023/03/31 12:22:54;;;;;;;;;;;;;;;12.43;79.81;96847.44;5057662;28;19920;-83
2023/03/31 12:25:21;;;;;;;;;;;;;;;12.65;79.76;96847.38;5085803;28;19916;-83
2023/03/31 12:27:48;;;;;;;;;;;;;;;12.83;78.81;96838.31;5077481;28;20009;-82
2023/03/31 12:30:14;;;;;;;;;;;;;;;13.07;77.69;96843.25;5081650;28;19924;-82
2023/03/31 12:32:45;;;;;;;;;;;;;;;13.20;76.95;96828.94;5085307;28;19916;-83
2023/03/31 12:35:19;;;;;;;;;;;;;;;13.23;76.42;96834.47;5084869;28;19935;-82
2023/03/31 12:38:12;;;;;;;;;;;;;;;13.11;75.98;96826.25;5091397;28;19977;-83
2023/03/31 12:40:45;;;;;;;;;;;;;;;12.97;75.58;96816.75;5094494;28;19920;-83
2023/03/31 12:43:29;;;;;;;;;;;;;;;13.11;75.46;96817.44;5091065;28;19928;-82
2023/03/31 12:45:57;;;;;;;;;;;;;;;13.15;75.40;96803.09;5086317;28;20399;-82
2023/03/31 12:48:43;;;;;;;;;;;;;;;13.30;74.94;96799.19;5090529;28;19958;-82
2023/03/31 12:51:14;;;;;;;;;;;;;;;13.28;75.16;96798.72;5093932;28;19975;-82
2023/03/31 12:53:58;;;;;;;;;;;;;;;13.34;74.56;96790.19;5083925;28;19923;-82
2023/03/31 12:56:23;;;;;;;;;;;;;;;13.32;74.67;96786.25;5091264;28;20353;-82
2023/03/31 12:58:48;;;;;;;;;;;;;;;13.57;73.52;96777.38;5073708;28;19924;-82
2023/03/31 13:01:32;;;;;;;;;;;;;;;13.86;73.26;96772.13;5057306;28;19928;-82
2023/03/31 13:04:10;;;;;;;;;;;;;;;13.90;72.42;96770.38;5068428;28;19928;-82